Nevskiy-22 — UFSO — position and weather

sailwx.info

Track history (hours):
 
Tides and Currents Weather Stations Pressure Air Temp Water Temp Dewpoint Dewpoint Depression Visibility Wind Speed Wind Dir Waves Ship Positions

Nevskiy-22

Last reported at 2015-Nov-15 14:04 UTC. Time now 2016-Jun-29 18:18 UTC.
Position N 59°47' E 030°39'.
Warning: this ship's position is months out of date.

Length 111 m; draft 3.2 m.

Type: Cargo ship. MMSI: 273449940.

Date/timePositionNaut miles runAvg speedWind from/ knotsBaromVisibWave heightAir tempDewpointWater temp
2015-Nov-15 14:04N 59°47' E 030°39'3 5.6
2015-Nov-15 13:32N 59°49' E 030°34'4 3.4
2015-Nov-15 12:16N 59°52' E 030°28'4 5.8
2015-Nov-15 11:33N 59°56' E 030°24'4 4.4
2015-Nov-15 10:33N 59°57' E 030°16'0 0.1
2015-Nov-15 09:33N 59°57' E 030°15'0 0.0
2015-Nov-15 08:33N 59°57' E 030°15'0 0.0
2015-Nov-15 07:33N 59°57' E 030°15'0 0.0
2015-Nov-15 06:33N 59°57' E 030°15'1 0.8
2015-Nov-15 05:33N 59°58' E 030°14'0 0.4
2015-Nov-15 04:33N 59°58' E 030°13'0 0.0
2015-Nov-15 03:33N 59°58' E 030°13'0 0.0
2015-Nov-15 02:33N 59°58' E 030°13'0 0.0
2015-Nov-15 01:34N 59°58' E 030°13'0 0.0
2015-Nov-15 00:33N 59°58' E 030°13'0 0.0
2015-Nov-14 23:33N 59°58' E 030°13'0 0.0
2015-Nov-14 22:33N 59°58' E 030°13'0 0.0
2015-Nov-14 21:33N 59°58' E 030°13'0 0.0
2015-Nov-14 20:33N 59°58' E 030°13'0 0.0
2015-Nov-14 19:33N 59°58' E 030°13'0 0.0
2015-Nov-14 18:33N 59°58' E 030°13'0 0.0
2015-Nov-14 17:34N 59°58' E 030°13'0 0.0
2015-Nov-14 16:34N 59°58' E 030°13'0 0.0
2015-Nov-14 15:33N 59°58' E 030°13'0 0.0
2015-Nov-14 14:33N 59°58' E 030°13'0 0.5
2015-Nov-14 13:33N 59°58' E 030°12'7 6.7
2015-Nov-14 12:33N 59°55' E 030°00'1 1.2
2015-Nov-14 11:33N 59°55' E 029°58'0 0.0
2015-Nov-14 10:32N 59°55' E 029°58'0 0.0
2015-Nov-14 09:33N 59°55' E 029°58'0 0.0
2015-Nov-14 08:33N 59°55' E 029°58'0 0.0
2015-Nov-14 07:33N 59°55' E 029°58'0 0.0
2015-Nov-14 06:33N 59°55' E 029°58'0 0.0
2015-Nov-14 05:33N 59°55' E 029°58'0 0.0
2015-Nov-14 04:33N 59°55' E 029°58'0 0.0
2015-Nov-14 03:33N 59°55' E 029°58'0 0.0
2015-Nov-14 02:33N 59°55' E 029°58'0 0.0
2015-Nov-14 01:33N 59°55' E 029°58'0 0.0
2015-Nov-14 00:33N 59°55' E 029°58'0 0.0
2015-Nov-13 23:32N 59°55' E 029°58'0 0.0
2015-Nov-13 22:33N 59°55' E 029°58'0 0.0
2015-Nov-13 21:33N 59°55' E 029°58'0 0.0
2015-Nov-13 20:33N 59°55' E 029°58'0 0.0
2015-Nov-13 19:33N 59°55' E 029°58'0 0.0
2015-Nov-13 18:33N 59°55' E 029°58'0 0.0
2015-Nov-13 17:33N 59°55' E 029°58'0 0.0
2015-Nov-13 16:33N 59°55' E 029°58'0 0.0
2015-Nov-13 15:33N 59°55' E 029°58'0 0.0
2015-Nov-13 14:33N 59°55' E 029°58'0 0.0
2015-Nov-13 13:33N 59°55' E 029°58'0 0.0
2015-Nov-13 12:33N 59°55' E 029°58'0 0.0
2015-Nov-13 11:33N 59°55' E 029°58'0 0.0
2015-Nov-13 10:33N 59°55' E 029°58'0 0.0
2015-Nov-13 09:33N 59°55' E 029°58'0 0.0
2015-Nov-13 08:33N 59°55' E 029°58'0 0.0
2015-Nov-13 07:33N 59°55' E 029°58'0 0.0
2015-Nov-13 06:33N 59°55' E 029°58'0 0.0
2015-Nov-13 05:33N 59°55' E 029°58'0 0.0
2015-Nov-13 04:33N 59°55' E 029°58'0 0.0
2015-Nov-13 03:33N 59°55' E 029°58'0 0.0
2015-Nov-13 02:33N 59°55' E 029°58'0 0.0
2015-Nov-13 01:33N 59°55' E 029°58'4 4.2
2015-Nov-13 00:33N 59°57' E 029°50'30 5.0
2015-Nov-12 18:31N 59°60' E 028°50'7 7.5
2015-Nov-12 17:34N 59°59' E 028°36'7 7.3
2015-Nov-12 16:33N 59°58' E 028°21'1 0.8
2015-Nov-12 15:33N 59°58' E 028°20'2 2.1
2015-Nov-12 14:33N 59°59' E 028°24'8 7.5
2015-Nov-12 13:33N 59°60' E 028°39'33 7.7
2015-Nov-12 09:19N 59°59' E 029°44'6 7.7
2015-Nov-12 08:33N 59°56' E 029°55'7 7.3
2015-Nov-12 07:33N 59°57' E 030°09'2 2.3
2015-Nov-12 06:33N 59°58' E 030°13'0 0.0
2015-Nov-12 05:33N 59°58' E 030°13'0 0.0
2015-Nov-12 04:33N 59°58' E 030°13'0 0.0
2015-Nov-12 03:33N 59°58' E 030°13'0 0.0
2015-Nov-12 02:33N 59°58' E 030°13'0 0.0
2015-Nov-12 01:33N 59°58' E 030°13'0 0.0
2015-Nov-12 00:33N 59°58' E 030°13'0 0.0
2015-Nov-11 23:33N 59°58' E 030°13'0 0.0
2015-Nov-11 22:33N 59°58' E 030°13'0 0.0
2015-Nov-11 21:33N 59°58' E 030°13'0 0.0
2015-Nov-11 20:33N 59°58' E 030°13'0 0.0
2015-Nov-11 19:33N 59°58' E 030°13'0 0.0
2015-Nov-11 18:33N 59°58' E 030°13'0 0.0
2015-Nov-11 17:30N 59°58' E 030°13'0 0.3
2015-Nov-11 16:33N 59°58' E 030°14'1 0.9
2015-Nov-11 15:33N 59°57' E 030°15'0 0.0
2015-Nov-11 14:33N 59°57' E 030°15'0 0.0
2015-Nov-11 13:33N 59°57' E 030°15'0 0.0
2015-Nov-11 12:33N 59°57' E 030°15'0 0.0
2015-Nov-11 11:33N 59°57' E 030°15'0 0.0
2015-Nov-11 10:33N 59°57' E 030°15'0 0.0
2015-Nov-11 09:33N 59°57' E 030°15'0 0.0
2015-Nov-11 08:33N 59°57' E 030°15'0 0.0
2015-Nov-11 07:33N 59°57' E 030°15'1 0.6
2015-Nov-11 06:33N 59°58' E 030°14'6 5.9
2015-Nov-11 05:33N 59°56' E 030°03'6 6.4
2015-Nov-11 04:33N 59°57' E 029°50'28 7.0
2015-Nov-11 00:33N 60°00' E 028°55'7 7.4
2015-Nov-10 23:34N 59°60' E 028°40'7 7.4
2015-Nov-10 22:34N 59°59' E 028°25'3 2.8
2015-Nov-10 21:33N 59°59' E 028°20'0 0.4
2015-Nov-10 20:34N 59°58' E 028°20'8 7.8
2015-Nov-10 19:33N 59°59' E 028°36'34 8.3
2015-Nov-10 15:29N 59°59' E 029°43'7 7.9
2015-Nov-10 14:33N 59°56' E 029°56'7 7.5
2015-Nov-10 13:34N 59°58' E 030°11'7 0.8
2015-Nov-10 05:10N 59°56' E 030°24'2 3.4
2015-Nov-10 04:33N 59°57' E 030°20'5 5.1
2015-Nov-10 03:33N 59°57' E 030°10'6 6.5
2015-Nov-10 02:33N 59°56' E 029°58'30 7.0
2015-Nov-09 22:16N 59°60' E 028°58'5 7.1
2015-Nov-09 21:32N 59°60' E 028°48'7 7.0
2015-Nov-09 20:33N 59°59' E 028°34'7 7.1
2015-Nov-09 19:33N 59°59' E 028°20'1 0.6
2015-Nov-09 18:34N 59°58' E 028°19'1 1.0
2015-Nov-09 17:34N 59°59' E 028°20'0 0.2
2015-Nov-09 16:34N 59°59' E 028°21'0 0.4
2015-Nov-09 15:34N 59°59' E 028°21'7 7.1
2015-Nov-09 14:34N 59°60' E 028°35'32 8.1
2015-Nov-09 10:33N 59°60' E 029°40'7 7.3
2015-Nov-09 09:32N 59°57' E 029°53'7 7.5
2015-Nov-09 08:33N 59°57' E 030°08'7 7.1
2015-Nov-09 07:33N 59°57' E 030°22'1 0.2
2015-Nov-09 02:32N 59°57' E 030°24'4 4.4
2015-Nov-09 01:33N 59°57' E 030°16'0 0.1
2015-Nov-09 00:33N 59°57' E 030°15'0 0.0
2015-Nov-08 23:33N 59°57' E 030°15'0 0.0
2015-Nov-08 22:33N 59°57' E 030°15'5 5.3
2015-Nov-08 21:33N 59°56' E 030°05'6 6.1
2015-Nov-08 20:33N 59°57' E 029°53'27 6.2
2015-Nov-08 16:15N 59°60' E 028°60'4 6.3
2015-Nov-08 15:33N 59°60' E 028°51'7 6.6
2015-Nov-08 14:33N 59°60' E 028°38'7 6.9
2015-Nov-08 13:33N 59°59' E 028°24'2 2.4
2015-Nov-08 12:33N 59°58' E 028°19'1 0.6
2015-Nov-08 11:33N 59°58' E 028°20'1 1.2
2015-Nov-08 10:33N 59°59' E 028°21'0 0.1
2015-Nov-08 09:33N 59°59' E 028°21'0 0.0
2015-Nov-08 08:33N 59°59' E 028°21'0 0.0
2015-Nov-08 07:34N 59°59' E 028°21'0 0.0
2015-Nov-08 06:34N 59°59' E 028°21'0 0.0
2015-Nov-08 05:33N 59°59' E 028°21'0 0.0
2015-Nov-08 04:33N 59°59' E 028°22'0 0.0
2015-Nov-08 03:33N 59°59' E 028°22'0 0.0
2015-Nov-08 02:33N 59°59' E 028°22'0 0.0
2015-Nov-08 01:33N 59°59' E 028°22'3 3.0
2015-Nov-08 00:33N 59°59' E 028°27'7 7.4
2015-Nov-07 23:33N 59°60' E 028°42'31 7.7
2015-Nov-07 19:33N 59°59' E 029°44'8 7.9
2015-Nov-07 18:33N 59°56' E 029°58'8 7.6
2015-Nov-07 17:33N 59°58' E 030°13'6 6.0
2015-Nov-07 16:32N 59°56' E 030°24'1 0.1
2015-Nov-07 09:08N 59°55' E 030°25'3 4.8
2015-Nov-07 08:33N 59°57' E 030°23'5 5.2
2015-Nov-07 07:33N 59°58' E 030°13'7 6.8
2015-Nov-07 06:33N 59°55' E 030°00'30 7.1
2015-Nov-07 02:15N 59°60' E 029°00'5 7.3
2015-Nov-07 01:33N 59°60' E 028°50'7 7.4
2015-Nov-07 00:34N 59°59' E 028°35'7 7.3
2015-Nov-06 23:33N 59°58' E 028°21'1 0.7
2015-Nov-06 22:33N 59°59' E 028°20'1 0.6
2015-Nov-06 21:33N 59°58' E 028°19'1 0.7
2015-Nov-06 20:33N 59°59' E 028°20'0 0.1
2015-Nov-06 19:33N 59°59' E 028°20'7 7.2
2015-Nov-06 18:33N 59°59' E 028°34'33 7.7
2015-Nov-06 14:17N 59°60' E 029°40'4 5.8
2015-Nov-06 13:33N 59°58' E 029°48'0 0.2
2015-Nov-06 12:33N 59°58' E 029°48'7 7.5
2015-Nov-06 11:33N 59°56' E 030°02'35 2.1
2015-Nov-05 18:22N 59°60' E 028°52'6 7.0
2015-Nov-05 17:33N 59°60' E 028°41'7 7.1
2015-Nov-05 16:34N 59°59' E 028°27'3 3.1
2015-Nov-05 15:34N 59°58' E 028°21'0 0.4
2015-Nov-05 14:34N 59°58' E 028°20'  
Track history (hours):
 
Tides and Currents Weather Stations Pressure Air Temp Water Temp Dewpoint Dewpoint Depression Visibility Wind Speed Wind Dir Waves Ship Positions

Nevskiy-22

Last reported at 2015-Nov-15 14:04 UTC. Time now 2016-Jun-29 18:18 UTC.
Position N 59°47' E 030°39'.
Warning: this ship's position is months out of date.

Length 111 m; draft 3.2 m.

Type: Cargo ship. MMSI: 273449940.

Date/timePositionNaut miles runAvg speedWind from/ knotsBaromVisibWave heightAir tempDewpointWater temp
2015-Nov-15 14:04N 59°47' E 030°39'3 5.6
2015-Nov-15 13:32N 59°49' E 030°34'4 3.4
2015-Nov-15 12:16N 59°52' E 030°28'4 5.8
2015-Nov-15 11:33N 59°56' E 030°24'4 4.4
2015-Nov-15 10:33N 59°57' E 030°16'0 0.1
2015-Nov-15 09:33N 59°57' E 030°15'0 0.0
2015-Nov-15 08:33N 59°57' E 030°15'0 0.0
2015-Nov-15 07:33N 59°57' E 030°15'0 0.0
2015-Nov-15 06:33N 59°57' E 030°15'1 0.8
2015-Nov-15 05:33N 59°58' E 030°14'0 0.4
2015-Nov-15 04:33N 59°58' E 030°13'0 0.0
2015-Nov-15 03:33N 59°58' E 030°13'0 0.0
2015-Nov-15 02:33N 59°58' E 030°13'0 0.0
2015-Nov-15 01:34N 59°58' E 030°13'0 0.0
2015-Nov-15 00:33N 59°58' E 030°13'0 0.0
2015-Nov-14 23:33N 59°58' E 030°13'0 0.0
2015-Nov-14 22:33N 59°58' E 030°13'0 0.0
2015-Nov-14 21:33N 59°58' E 030°13'0 0.0
2015-Nov-14 20:33N 59°58' E 030°13'0 0.0
2015-Nov-14 19:33N 59°58' E 030°13'0 0.0
2015-Nov-14 18:33N 59°58' E 030°13'0 0.0
2015-Nov-14 17:34N 59°58' E 030°13'0 0.0
2015-Nov-14 16:34N 59°58' E 030°13'0 0.0
2015-Nov-14 15:33N 59°58' E 030°13'0 0.0
2015-Nov-14 14:33N 59°58' E 030°13'0 0.5
2015-Nov-14 13:33N 59°58' E 030°12'7 6.7
2015-Nov-14 12:33N 59°55' E 030°00'1 1.2
2015-Nov-14 11:33N 59°55' E 029°58'0 0.0
2015-Nov-14 10:32N 59°55' E 029°58'0 0.0
2015-Nov-14 09:33N 59°55' E 029°58'0 0.0
2015-Nov-14 08:33N 59°55' E 029°58'0 0.0
2015-Nov-14 07:33N 59°55' E 029°58'0 0.0
2015-Nov-14 06:33N 59°55' E 029°58'0 0.0
2015-Nov-14 05:33N 59°55' E 029°58'0 0.0
2015-Nov-14 04:33N 59°55' E 029°58'0 0.0
2015-Nov-14 03:33N 59°55' E 029°58'0 0.0
2015-Nov-14 02:33N 59°55' E 029°58'0 0.0
2015-Nov-14 01:33N 59°55' E 029°58'0 0.0
2015-Nov-14 00:33N 59°55' E 029°58'0 0.0
2015-Nov-13 23:32N 59°55' E 029°58'0 0.0
2015-Nov-13 22:33N 59°55' E 029°58'0 0.0
2015-Nov-13 21:33N 59°55' E 029°58'0 0.0
2015-Nov-13 20:33N 59°55' E 029°58'0 0.0
2015-Nov-13 19:33N 59°55' E 029°58'0 0.0
2015-Nov-13 18:33N 59°55' E 029°58'0 0.0
2015-Nov-13 17:33N 59°55' E 029°58'0 0.0
2015-Nov-13 16:33N 59°55' E 029°58'0 0.0
2015-Nov-13 15:33N 59°55' E 029°58'0 0.0
2015-Nov-13 14:33N 59°55' E 029°58'0 0.0
2015-Nov-13 13:33N 59°55' E 029°58'0 0.0
2015-Nov-13 12:33N 59°55' E 029°58'0 0.0
2015-Nov-13 11:33N 59°55' E 029°58'0 0.0
2015-Nov-13 10:33N 59°55' E 029°58'0 0.0
2015-Nov-13 09:33N 59°55' E 029°58'0 0.0
2015-Nov-13 08:33N 59°55' E 029°58'0 0.0
2015-Nov-13 07:33N 59°55' E 029°58'0 0.0
2015-Nov-13 06:33N 59°55' E 029°58'0 0.0
2015-Nov-13 05:33N 59°55' E 029°58'0 0.0
2015-Nov-13 04:33N 59°55' E 029°58'0 0.0
2015-Nov-13 03:33N 59°55' E 029°58'0 0.0
2015-Nov-13 02:33N 59°55' E 029°58'0 0.0
2015-Nov-13 01:33N 59°55' E 029°58'4 4.2
2015-Nov-13 00:33N 59°57' E 029°50'30 5.0
2015-Nov-12 18:31N 59°60' E 028°50'7 7.5
2015-Nov-12 17:34N 59°59' E 028°36'7 7.3
2015-Nov-12 16:33N 59°58' E 028°21'1 0.8
2015-Nov-12 15:33N 59°58' E 028°20'2 2.1
2015-Nov-12 14:33N 59°59' E 028°24'8 7.5
2015-Nov-12 13:33N 59°60' E 028°39'33 7.7
2015-Nov-12 09:19N 59°59' E 029°44'6 7.7
2015-Nov-12 08:33N 59°56' E 029°55'7 7.3
2015-Nov-12 07:33N 59°57' E 030°09'2 2.3
2015-Nov-12 06:33N 59°58' E 030°13'0 0.0
2015-Nov-12 05:33N 59°58' E 030°13'0 0.0
2015-Nov-12 04:33N 59°58' E 030°13'0 0.0
2015-Nov-12 03:33N 59°58' E 030°13'0 0.0
2015-Nov-12 02:33N 59°58' E 030°13'0 0.0
2015-Nov-12 01:33N 59°58' E 030°13'0 0.0
2015-Nov-12 00:33N 59°58' E 030°13'0 0.0
2015-Nov-11 23:33N 59°58' E 030°13'0 0.0
2015-Nov-11 22:33N 59°58' E 030°13'0 0.0
2015-Nov-11 21:33N 59°58' E 030°13'0 0.0
2015-Nov-11 20:33N 59°58' E 030°13'0 0.0
2015-Nov-11 19:33N 59°58' E 030°13'0 0.0
2015-Nov-11 18:33N 59°58' E 030°13'0 0.0
2015-Nov-11 17:30N 59°58' E 030°13'0 0.3
2015-Nov-11 16:33N 59°58' E 030°14'1 0.9
2015-Nov-11 15:33N 59°57' E 030°15'0 0.0
2015-Nov-11 14:33N 59°57' E 030°15'0 0.0
2015-Nov-11 13:33N 59°57' E 030°15'0 0.0
2015-Nov-11 12:33N 59°57' E 030°15'0 0.0
2015-Nov-11 11:33N 59°57' E 030°15'0 0.0
2015-Nov-11 10:33N 59°57' E 030°15'0 0.0
2015-Nov-11 09:33N 59°57' E 030°15'0 0.0
2015-Nov-11 08:33N 59°57' E 030°15'0 0.0
2015-Nov-11 07:33N 59°57' E 030°15'1 0.6
2015-Nov-11 06:33N 59°58' E 030°14'6 5.9
2015-Nov-11 05:33N 59°56' E 030°03'6 6.4
2015-Nov-11 04:33N 59°57' E 029°50'28 7.0
2015-Nov-11 00:33N 60°00' E 028°55'7 7.4
2015-Nov-10 23:34N 59°60' E 028°40'7 7.4
2015-Nov-10 22:34N 59°59' E 028°25'3 2.8
2015-Nov-10 21:33N 59°59' E 028°20'0 0.4
2015-Nov-10 20:34N 59°58' E 028°20'8 7.8
2015-Nov-10 19:33N 59°59' E 028°36'34 8.3
2015-Nov-10 15:29N 59°59' E 029°43'7 7.9
2015-Nov-10 14:33N 59°56' E 029°56'7 7.5
2015-Nov-10 13:34N 59°58' E 030°11'7 0.8
2015-Nov-10 05:10N 59°56' E 030°24'2 3.4
2015-Nov-10 04:33N 59°57' E 030°20'5 5.1
2015-Nov-10 03:33N 59°57' E 030°10'6 6.5
2015-Nov-10 02:33N 59°56' E 029°58'30 7.0
2015-Nov-09 22:16N 59°60' E 028°58'5 7.1
2015-Nov-09 21:32N 59°60' E 028°48'7 7.0
2015-Nov-09 20:33N 59°59' E 028°34'7 7.1
2015-Nov-09 19:33N 59°59' E 028°20'1 0.6
2015-Nov-09 18:34N 59°58' E 028°19'1 1.0
2015-Nov-09 17:34N 59°59' E 028°20'0 0.2
2015-Nov-09 16:34N 59°59' E 028°21'0 0.4
2015-Nov-09 15:34N 59°59' E 028°21'7 7.1
2015-Nov-09 14:34N 59°60' E 028°35'32 8.1
2015-Nov-09 10:33N 59°60' E 029°40'7 7.3
2015-Nov-09 09:32N 59°57' E 029°53'7 7.5
2015-Nov-09 08:33N 59°57' E 030°08'7 7.1
2015-Nov-09 07:33N 59°57' E 030°22'1 0.2
2015-Nov-09 02:32N 59°57' E 030°24'4 4.4
2015-Nov-09 01:33N 59°57' E 030°16'0 0.1
2015-Nov-09 00:33N 59°57' E 030°15'0 0.0
2015-Nov-08 23:33N 59°57' E 030°15'0 0.0
2015-Nov-08 22:33N 59°57' E 030°15'5 5.3
2015-Nov-08 21:33N 59°56' E 030°05'6 6.1
2015-Nov-08 20:33N 59°57' E 029°53'27 6.2
2015-Nov-08 16:15N 59°60' E 028°60'4 6.3
2015-Nov-08 15:33N 59°60' E 028°51'7 6.6
2015-Nov-08 14:33N 59°60' E 028°38'7 6.9
2015-Nov-08 13:33N 59°59' E 028°24'2 2.4
2015-Nov-08 12:33N 59°58' E 028°19'1 0.6
2015-Nov-08 11:33N 59°58' E 028°20'1 1.2
2015-Nov-08 10:33N 59°59' E 028°21'0 0.1
2015-Nov-08 09:33N 59°59' E 028°21'0 0.0
2015-Nov-08 08:33N 59°59' E 028°21'0 0.0
2015-Nov-08 07:34N 59°59' E 028°21'0 0.0
2015-Nov-08 06:34N 59°59' E 028°21'0 0.0
2015-Nov-08 05:33N 59°59' E 028°21'0 0.0
2015-Nov-08 04:33N 59°59' E 028°22'0 0.0
2015-Nov-08 03:33N 59°59' E 028°22'0 0.0
2015-Nov-08 02:33N 59°59' E 028°22'0 0.0
2015-Nov-08 01:33N 59°59' E 028°22'3 3.0
2015-Nov-08 00:33N 59°59' E 028°27'7 7.4
2015-Nov-07 23:33N 59°60' E 028°42'31 7.7
2015-Nov-07 19:33N 59°59' E 029°44'8 7.9
2015-Nov-07 18:33N 59°56' E 029°58'8 7.6
2015-Nov-07 17:33N 59°58' E 030°13'6 6.0
2015-Nov-07 16:32N 59°56' E 030°24'1 0.1
2015-Nov-07 09:08N 59°55' E 030°25'3 4.8
2015-Nov-07 08:33N 59°57' E 030°23'5 5.2
2015-Nov-07 07:33N 59°58' E 030°13'7 6.8
2015-Nov-07 06:33N 59°55' E 030°00'30 7.1
2015-Nov-07 02:15N 59°60' E 029°00'5 7.3
2015-Nov-07 01:33N 59°60' E 028°50'7 7.4
2015-Nov-07 00:34N 59°59' E 028°35'7 7.3
2015-Nov-06 23:33N 59°58' E 028°21'1 0.7
2015-Nov-06 22:33N 59°59' E 028°20'1 0.6
2015-Nov-06 21:33N 59°58' E 028°19'1 0.7
2015-Nov-06 20:33N 59°59' E 028°20'0 0.1
2015-Nov-06 19:33N 59°59' E 028°20'7 7.2
2015-Nov-06 18:33N 59°59' E 028°34'33 7.7
2015-Nov-06 14:17N 59°60' E 029°40'4 5.8
2015-Nov-06 13:33N 59°58' E 029°48'0 0.2
2015-Nov-06 12:33N 59°58' E 029°48'7 7.5
2015-Nov-06 11:33N 59°56' E 030°02'35 2.1
2015-Nov-05 18:22N 59°60' E 028°52'6 7.0
2015-Nov-05 17:33N 59°60' E 028°41'7 7.1
2015-Nov-05 16:34N 59°59' E 028°27'3 3.1
2015-Nov-05 15:34N 59°58' E 028°21'0 0.4
2015-Nov-05 14:34N 59°58' E 028°20'  

Dump ship's entire track history